Time;durP1;ratioP1;P1;durP2;ratioP2;P2;SDS_P1;SDS_P2;PMS_P1;PMS_P2;Temp;Humidity;BMP_temperature;BMP_pressure;BME280_temperature;BME280_humidity;BME280_pressure;Samples;Min_cycle;Max_cycle;Signal;HPM_P1;HPM_P2
2021/01/20 00:00:46;;;;;;;5.10;3.00;;;;;;;-144.78;100.00;59851.00;5032057;28;20206;-69
2021/01/20 00:03:12;;;;;;;3.35;2.80;;;;;;;-144.78;100.00;59851.00;5032239;28;20207;-71
2021/01/20 00:05:38;;;;;;;5.25;2.85;;;;;;;-144.78;100.00;59851.00;5032639;28;20202;-69
2021/01/20 00:08:05;;;;;;;5.60;3.42;;;;;;;-144.78;100.00;59851.00;5032710;28;20250;-70
2021/01/20 00:10:32;;;;;;;2.65;2.42;;;;;;;-144.78;100.00;59851.00;5032053;28;20202;-70
2021/01/20 00:12:58;;;;;;;3.72;2.90;;;;;;;-144.78;100.00;59851.00;5032241;28;20209;-70
2021/01/20 00:15:25;;;;;;;2.75;2.00;;;;;;;-144.78;100.00;59851.00;5032498;28;20192;-70
2021/01/20 00:17:52;;;;;;;2.38;2.13;;;;;;;-144.78;100.00;59851.00;5032475;28;20202;-71
2021/01/20 00:20:18;;;;;;;3.30;2.33;;;;;;;-144.78;100.00;59851.00;5035774;28;20315;-71
2021/01/20 00:22:47;;;;;;;2.53;2.30;;;;;;;-144.78;100.00;59851.00;5035957;28;20274;-71
2021/01/20 00:25:15;;;;;;;3.38;2.60;;;;;;;-144.78;100.00;59851.00;5036406;28;20212;-70
2021/01/20 00:27:42;;;;;;;3.15;2.00;;;;;;;-144.78;100.00;59851.00;5036413;28;20589;-71
2021/01/20 00:30:09;;;;;;;3.85;2.67;;;;;;;-144.78;100.00;59851.00;5020153;28;20904;-71
2021/01/20 00:32:36;;;;;;;3.25;2.90;;;;;;;-144.78;100.00;59851.00;5016695;28;20322;-70
2021/01/20 00:35:03;;;;;;;3.58;2.72;;;;;;;-144.78;100.00;59851.00;5016767;28;20252;-71
2021/01/20 00:37:29;;;;;;;3.00;2.30;;;;;;;-144.78;100.00;59851.00;5016266;28;20232;-70
2021/01/20 00:39:56;;;;;;;4.68;2.15;;;;;;;-144.78;100.00;59851.00;5033913;28;20230;-71
2021/01/20 00:42:22;;;;;;;5.82;3.00;;;;;;;-144.78;100.00;59851.00;5036147;28;20205;-71
2021/01/20 00:44:49;;;;;;;2.22;2.03;;;;;;;-144.78;100.00;59851.00;5036082;28;20192;-71
2021/01/20 00:47:16;;;;;;;2.20;2.00;;;;;;;-144.78;100.00;59851.00;5036039;28;20598;-70
2021/01/20 00:49:42;;;;;;;2.85;1.83;;;;;;;-144.78;100.00;59851.00;5035795;28;20188;-71
2021/01/20 00:52:08;;;;;;;2.88;2.25;;;;;;;-144.78;100.00;59851.00;5035744;28;20194;-71
2021/01/20 00:54:34;;;;;;;3.17;2.13;;;;;;;-144.78;100.00;59851.00;5035231;28;20209;-71
2021/01/20 00:57:00;;;;;;;3.83;2.55;;;;;;;-144.78;100.00;59851.00;5035640;28;20207;-71
2021/01/20 00:59:27;;;;;;;4.65;2.00;;;;;;;-144.78;100.00;59851.00;5035746;28;20270;-71
2021/01/20 01:01:57;;;;;;;2.33;1.88;;;;;;;-144.78;100.00;59851.00;5035696;28;20239;-71
2021/01/20 01:04:24;;;;;;;3.78;2.30;;;;;;;-144.78;100.00;59851.00;5035541;28;20247;-70
2021/01/20 01:06:50;;;;;;;2.17;1.85;;;;;;;-144.78;100.00;59851.00;5034844;28;20609;-71
2021/01/20 01:09:17;;;;;;;3.53;2.20;;;;;;;-144.78;100.00;59851.00;5035389;28;20572;-71
2021/01/20 01:11:43;;;;;;;3.45;1.65;;;;;;;-144.78;100.00;59851.00;5035341;28;20195;-70
2021/01/20 01:14:09;;;;;;;3.42;1.92;;;;;;;-144.78;100.00;59851.00;5035061;28;20282;-69
2021/01/20 01:16:35;;;;;;;2.75;1.50;;;;;;;-144.78;100.00;59851.00;5035201;28;20233;-71
2021/01/20 01:19:03;;;;;;;1.95;1.77;;;;;;;-144.78;100.00;59851.00;5035483;28;20192;-70
2021/01/20 01:21:30;;;;;;;3.67;2.65;;;;;;;-144.78;100.00;59851.00;5033957;28;20215;-69
2021/01/20 01:23:56;;;;;;;3.15;2.20;;;;;;;-144.78;100.00;59851.00;5015282;28;20206;-71
2021/01/20 01:26:22;;;;;;;2.53;1.80;;;;;;;-144.78;100.00;59851.00;5024847;28;20216;-70
2021/01/20 01:28:48;;;;;;;4.13;2.10;;;;;;;-144.78;100.00;59851.00;5034996;28;20265;-71
2021/01/20 01:31:14;;;;;;;2.45;1.65;;;;;;;-144.78;100.00;59851.00;5034224;28;20197;-70
2021/01/20 01:33:40;;;;;;;2.60;1.92;;;;;;;-144.78;100.00;59851.00;5024642;28;20296;-69
2021/01/20 01:36:08;;;;;;;3.45;1.88;;;;;;;-144.78;100.00;59851.00;5015066;28;20573;-71
2021/01/20 01:38:34;;;;;;;5.22;2.45;;;;;;;-144.78;100.00;59851.00;5015070;28;20265;-70
2021/01/20 01:41:00;;;;;;;2.55;1.70;;;;;;;-144.78;100.00;59851.00;5014757;28;20248;-71
2021/01/20 01:43:27;;;;;;;2.20;1.90;;;;;;;-144.78;100.00;59851.00;5015136;28;20296;-71
2021/01/20 01:45:53;;;;;;;4.43;2.92;;;;;;;-144.78;100.00;59851.00;5015104;28;20662;-70
2021/01/20 01:48:19;;;;;;;3.95;2.63;;;;;;;-144.78;100.00;59851.00;5020408;28;20292;-70
2021/01/20 01:50:47;;;;;;;2.15;1.92;;;;;;;-144.78;100.00;59851.00;5034583;28;20215;-70
2021/01/20 01:53:14;;;;;;;3.88;2.63;;;;;;;-144.78;100.00;59851.00;5034309;28;20229;-71
2021/01/20 01:55:41;;;;;;;2.45;2.22;;;;;;;-144.78;100.00;59851.00;5034399;28;20186;-70
2021/01/20 01:58:07;;;;;;;2.65;2.10;;;;;;;-144.78;100.00;59851.00;5034679;28;20210;-71
2021/01/20 02:00:34;;;;;;;2.30;1.70;;;;;;;-144.78;100.00;59851.00;5034625;28;20603;-70
2021/01/20 02:03:00;;;;;;;2.08;1.98;;;;;;;-144.78;100.00;59851.00;5034644;28;20219;-72
2021/01/20 02:05:27;;;;;;;3.90;2.20;;;;;;;-144.78;100.00;59851.00;5034061;28;20216;-70
2021/01/20 02:07:54;;;;;;;4.30;2.75;;;;;;;-144.78;100.00;59851.00;5034204;28;20245;-70
2021/01/20 02:10:21;;;;;;;2.95;2.30;;;;;;;-144.78;100.00;59851.00;5019788;28;20235;-71
2021/01/20 02:13:10;;;;;;;2.30;2.10;;;;;;;-144.78;100.00;59851.00;5014502;28;20219;-71
2021/01/20 02:15:41;;;;;;;3.20;2.83;;;;;;;-144.78;100.00;59851.00;5014361;28;20211;-71
2021/01/20 02:18:13;;;;;;;4.80;1.88;;;;;;;-144.78;100.00;59851.00;5014513;28;20191;-70
2021/01/20 02:21:09;;;;;;;4.53;2.38;;;;;;;-144.78;100.00;59851.00;5014043;28;20708;-71
2021/01/20 02:23:39;;;;;;;5.00;2.42;;;;;;;-144.78;100.00;59851.00;5014414;28;20199;-70
2021/01/20 02:26:15;;;;;;;3.45;2.22;;;;;;;-144.78;100.00;59851.00;5032124;28;20218;-70
2021/01/20 02:29:02;;;;;;;3.47;2.17;;;;;;;-144.78;100.00;59851.00;5033662;28;20684;-69
2021/01/20 02:31:30;;;;;;;3.47;2.40;;;;;;;-144.78;100.00;59851.00;5033454;28;20249;-70
2021/01/20 02:34:01;;;;;;;2.70;2.38;;;;;;;-144.78;100.00;59851.00;5033552;28;20187;-71
2021/01/20 02:36:29;;;;;;;4.47;2.40;;;;;;;-144.78;100.00;59851.00;5034166;28;20286;-70
2021/01/20 02:38:56;;;;;;;4.00;2.20;;;;;;;-144.78;100.00;59851.00;5034246;28;20300;-70
2021/01/20 02:41:27;;;;;;;2.13;1.92;;;;;;;-144.78;100.00;59851.00;5034104;28;20798;-71
2021/01/20 02:43:53;;;;;;;4.35;2.58;;;;;;;-144.78;100.00;59851.00;5033666;28;20206;-71
2021/01/20 02:46:21;;;;;;;2.55;2.30;;;;;;;-144.78;100.00;59851.00;5033735;28;20643;-69
2021/01/20 02:48:49;;;;;;;2.83;1.83;;;;;;;-144.78;100.00;59851.00;5032829;28;20265;-70
2021/01/20 02:51:27;;;;;;;2.67;2.42;;;;;;;-144.78;100.00;59851.00;5033421;28;20290;-72
2021/01/20 02:53:56;;;;;;;2.20;2.00;;;;;;;-144.78;100.00;59851.00;5033954;28;20538;-71
2021/01/20 02:56:24;;;;;;;4.88;2.17;;;;;;;-144.78;100.00;59851.00;5033278;28;20236;-70
2021/01/20 02:58:52;;;;;;;3.78;1.98;;;;;;;-144.78;100.00;59851.00;5033182;28;20218;-70
2021/01/20 03:01:20;;;;;;;4.32;2.22;;;;;;;-144.78;100.00;59851.00;5033519;28;20651;-70
2021/01/20 03:03:51;;;;;;;2.45;2.25;;;;;;;-144.78;100.00;59851.00;5033496;28;20242;-72
2021/01/20 03:06:18;;;;;;;2.38;1.75;;;;;;;-144.78;100.00;59851.00;5032676;28;20278;-69
2021/01/20 03:08:45;;;;;;;3.70;1.90;;;;;;;-144.78;100.00;59851.00;5033358;28;20626;-70
2021/01/20 03:11:12;;;;;;;5.40;2.60;;;;;;;-144.78;100.00;59851.00;5032918;28;20233;-71
2021/01/20 03:13:42;;;;;;;3.95;2.40;;;;;;;-144.78;100.00;59851.00;5033125;28;20334;-70
2021/01/20 03:16:08;;;;;;;3.03;2.30;;;;;;;-144.78;100.00;59851.00;5033232;28;20730;-72
2021/01/20 03:18:34;;;;;;;5.53;2.10;;;;;;;-144.78;100.00;59851.00;5033398;28;20235;-72
2021/01/20 03:21:02;;;;;;;3.45;2.65;;;;;;;-144.78;100.00;59851.00;5033235;28;20296;-72
2021/01/20 03:23:28;;;;;;;4.72;2.95;;;;;;;-144.78;100.00;59851.00;5033000;28;20657;-70
2021/01/20 03:25:56;;;;;;;3.15;2.08;;;;;;;-144.78;100.00;59851.00;5026131;28;20278;-70
2021/01/20 03:28:23;;;;;;;3.40;2.10;;;;;;;-144.78;100.00;59851.00;5012961;28;20290;-71
2021/01/20 03:30:49;;;;;;;2.67;2.42;;;;;;;-144.78;100.00;59851.00;5013477;28;20188;-70
2021/01/20 03:33:15;;;;;;;3.55;2.50;;;;;;;-144.78;100.00;59851.00;5013068;28;20225;-71
2021/01/20 03:35:41;;;;;;;2.30;1.90;;;;;;;-144.78;100.00;59851.00;5013079;28;20714;-71
2021/01/20 03:38:09;;;;;;;2.10;1.88;;;;;;;-144.78;100.00;59851.00;5013038;28;20718;-71
2021/01/20 03:40:35;;;;;;;2.88;2.58;;;;;;;-144.78;100.00;59851.00;5012845;28;20232;-70
2021/01/20 03:43:01;;;;;;;2.17;1.92;;;;;;;-144.78;100.00;59851.00;5013164;28;20210;-70
2021/01/20 03:45:27;;;;;;;7.78;2.80;;;;;;;-144.78;100.00;59851.00;5012559;28;20293;-70
2021/01/20 03:47:54;;;;;;;3.65;3.03;;;;;;;-144.78;100.00;59851.00;5012912;28;20283;-70
2021/01/20 03:50:20;;;;;;;3.88;2.72;;;;;;;-144.78;100.00;59851.00;5013114;28;20616;-71
2021/01/20 03:52:46;;;;;;;3.90;2.15;;;;;;;-144.78;100.00;59851.00;5013214;28;20315;-71
2021/01/20 03:55:13;;;;;;;2.35;2.15;;;;;;;-144.78;100.00;59851.00;5012429;28;20297;-71
2021/01/20 03:57:39;;;;;;;5.75;3.15;;;;;;;-144.78;100.00;59851.00;5012908;28;20211;-70
2021/01/20 04:00:06;;;;;;;3.17;2.35;;;;;;;-144.78;100.00;59851.00;5012290;28;20396;-71
2021/01/20 04:02:33;;;;;;;2.65;2.45;;;;;;;-144.78;100.00;59851.00;5012139;28;20197;-70
2021/01/20 04:04:59;;;;;;;6.18;2.83;;;;;;;-144.78;100.00;59851.00;5012252;28;20287;-70
2021/01/20 04:07:25;;;;;;;6.03;1.95;;;;;;;-144.78;100.00;59851.00;5012504;28;20287;-71
2021/01/20 04:09:51;;;;;;;3.13;2.20;;;;;;;-144.78;100.00;59851.00;5012682;28;20197;-72
2021/01/20 04:12:18;;;;;;;3.20;2.60;;;;;;;-144.78;100.00;59851.00;5012119;28;20330;-71
2021/01/20 04:14:44;;;;;;;4.00;3.08;;;;;;;-144.78;100.00;59851.00;5012330;28;20281;-71
2021/01/20 04:17:11;;;;;;;5.10;2.95;;;;;;;-144.78;100.00;59851.00;5012190;28;20256;-71
2021/01/20 04:19:37;;;;;;;2.92;2.00;;;;;;;-144.78;100.00;59851.00;5012221;28;20303;-71
2021/01/20 04:22:03;;;;;;;3.38;2.97;;;;;;;-144.78;100.00;59851.00;5012155;28;20550;-70
2021/01/20 04:24:29;;;;;;;8.63;2.10;;;;;;;-144.78;100.00;59851.00;5012661;28;20249;-70
2021/01/20 04:26:55;;;;;;;2.13;1.92;;;;;;;-144.78;100.00;59851.00;5012498;28;20279;-70
2021/01/20 04:29:22;;;;;;;5.07;2.50;;;;;;;-144.78;100.00;59851.00;5027505;28;20236;-70
2021/01/20 04:31:48;;;;;;;3.15;2.25;;;;;;;-144.78;100.00;59851.00;5032255;28;20691;-70
2021/01/20 04:34:15;;;;;;;4.78;2.95;;;;;;;-144.78;100.00;59851.00;5032288;28;20214;-71
2021/01/20 04:36:41;;;;;;;2.85;2.63;;;;;;;-144.78;100.00;59851.00;5032095;28;20285;-71
2021/01/20 04:39:07;;;;;;;4.85;2.83;;;;;;;-144.78;100.00;59851.00;5032171;28;20678;-70
2021/01/20 04:41:34;;;;;;;4.03;2.58;;;;;;;-144.78;100.00;59851.00;5032008;28;20215;-69
2021/01/20 04:44:00;;;;;;;5.40;2.50;;;;;;;-144.78;100.00;59851.00;5031041;28;20208;-71
2021/01/20 04:46:29;;;;;;;3.20;2.10;;;;;;;-144.78;100.00;59851.00;5032269;28;20317;-70
2021/01/20 04:48:56;;;;;;;3.25;2.20;;;;;;;-144.78;100.00;59851.00;5031675;28;20240;-72
2021/01/20 04:51:24;;;;;;;5.32;2.60;;;;;;;-144.78;100.00;59851.00;5031931;28;20546;-70
2021/01/20 04:53:53;;;;;;;3.63;2.88;;;;;;;-144.78;100.00;59851.00;5031758;28;20188;-71
2021/01/20 04:56:20;;;;;;;7.97;2.80;;;;;;;-144.78;100.00;59851.00;5031455;28;20195;-72
2021/01/20 04:58:47;;;;;;;2.72;2.25;;;;;;;-144.78;100.00;59851.00;5031811;28;20201;-71
2021/01/20 05:01:13;;;;;;;3.05;2.33;;;;;;;-144.78;100.00;59851.00;5031921;28;20208;-70
2021/01/20 05:03:41;;;;;;;5.97;2.92;;;;;;;-144.78;100.00;59851.00;5031226;28;20210;-70
2021/01/20 05:06:10;;;;;;;6.25;3.10;;;;;;;-144.78;100.00;59851.00;5030256;28;20213;-72
2021/01/20 05:08:36;;;;;;;3.20;2.80;;;;;;;-144.78;100.00;59851.00;5035631;28;20192;-70
2021/01/20 05:11:02;;;;;;;4.38;3.08;;;;;;;-144.78;100.00;59851.00;5035021;28;20203;-70
2021/01/20 05:13:30;;;;;;;5.00;2.35;;;;;;;-144.78;100.00;59851.00;5035670;28;20216;-71
2021/01/20 05:15:57;;;;;;;3.38;2.70;;;;;;;-144.78;100.00;59851.00;5035005;28;20269;-70
2021/01/20 05:18:24;;;;;;;5.82;2.53;;;;;;;-144.78;100.00;59851.00;5035333;28;20654;-71
2021/01/20 05:20:52;;;;;;;2.42;2.20;;;;;;;-144.78;100.00;59851.00;5034877;28;20572;-70
2021/01/20 05:23:25;;;;;;;4.95;2.70;;;;;;;-144.78;100.00;59851.00;5035189;28;20191;-71
2021/01/20 05:25:51;;;;;;;4.57;2.35;;;;;;;-144.78;100.00;59851.00;5022292;28;20248;-70
2021/01/20 05:28:20;;;;;;;3.47;2.40;;;;;;;-144.78;100.00;59851.00;5034623;28;20232;-69
2021/01/20 05:30:51;;;;;;;3.50;3.03;;;;;;;-144.78;100.00;59851.00;5035042;28;20200;-70
2021/01/20 05:33:19;;;;;;;4.07;3.28;;;;;;;-144.78;100.00;59851.00;5035030;28;20281;-71
2021/01/20 05:36:05;;;;;;;3.85;2.85;;;;;;;-144.78;100.00;59851.00;5035402;28;20270;-70
2021/01/20 05:38:39;;;;;;;3.17;2.83;;;;;;;-144.78;100.00;59851.00;5034994;28;20581;-72
2021/01/20 05:41:15;;;;;;;3.65;3.33;;;;;;;-144.78;100.00;59851.00;5034533;28;20296;-71
2021/01/20 05:43:42;;;;;;;7.45;3.03;;;;;;;-144.78;100.00;59851.00;5034488;28;20208;-71
2021/01/20 05:46:09;;;;;;;3.55;2.90;;;;;;;-144.78;100.00;59851.00;5035032;28;20657;-70
2021/01/20 05:48:45;;;;;;;3.03;2.50;;;;;;;-144.78;100.00;59851.00;5034515;28;20693;-71
2021/01/20 05:51:12;;;;;;;3.47;2.38;;;;;;;-144.78;100.00;59851.00;5034540;28;20206;-70
2021/01/20 05:53:50;;;;;;;4.68;2.45;;;;;;;-144.78;100.00;59851.00;5034838;28;20204;-70
2021/01/20 05:56:16;;;;;;;4.32;2.85;;;;;;;-144.78;100.00;59851.00;5034307;28;20262;-69
2021/01/20 05:58:42;;;;;;;4.53;3.17;;;;;;;-144.78;100.00;59851.00;5034450;28;20208;-71
2021/01/20 06:01:10;;;;;;;3.67;2.35;;;;;;;-144.78;100.00;59851.00;5034472;28;20233;-69
2021/01/20 06:03:37;;;;;;;2.92;2.50;;;;;;;-144.78;100.00;59851.00;5033940;28;20205;-71
2021/01/20 06:06:07;;;;;;;5.45;3.30;;;;;;;-144.78;100.00;59851.00;5024116;28;20228;-71
2021/01/20 06:08:35;;;;;;;4.97;2.97;;;;;;;-144.78;100.00;59851.00;5014799;28;20284;-71
2021/01/20 06:11:03;;;;;;;6.22;3.00;;;;;;;-144.78;100.00;59851.00;5014618;28;20216;-71
2021/01/20 06:13:29;;;;;;;3.47;2.50;;;;;;;-144.78;100.00;59851.00;5020742;28;20230;-70
2021/01/20 06:15:58;;;;;;;3.40;3.05;;;;;;;-144.78;100.00;59851.00;5034245;28;20190;-70
2021/01/20 06:18:25;;;;;;;5.63;2.72;;;;;;;-144.78;100.00;59851.00;5033786;28;20244;-71
2021/01/20 06:20:53;;;;;;;4.60;2.78;;;;;;;-144.78;100.00;59851.00;5033673;28;20216;-71
2021/01/20 06:23:23;;;;;;;3.47;3.08;;;;;;;-144.78;100.00;59851.00;5033992;28;20192;-71
2021/01/20 06:25:56;;;;;;;5.20;3.22;;;;;;;-144.78;100.00;59851.00;5033676;28;20186;-70
2021/01/20 06:28:23;;;;;;;5.65;3.45;;;;;;;-144.78;100.00;59851.00;5033531;28;20239;-72
2021/01/20 06:30:52;;;;;;;5.70;3.97;;;;;;;-144.78;100.00;59851.00;5031967;28;20292;-71
2021/01/20 06:33:20;;;;;;;6.75;3.03;;;;;;;-144.78;100.00;59851.00;5029268;28;20293;-71
2021/01/20 06:35:48;;;;;;;6.53;3.25;;;;;;;-144.78;100.00;59851.00;5033451;28;20206;-71
2021/01/20 06:38:35;;;;;;;4.20;3.60;;;;;;;-144.78;100.00;59851.00;5033716;28;20197;-70
2021/01/20 06:41:05;;;;;;;5.18;3.58;;;;;;;-144.78;100.00;59851.00;5033234;28;20219;-71
2021/01/20 06:44:08;;;;;;;5.43;4.05;;;;;;;-144.78;100.00;59851.00;5024802;28;20764;-72
2021/01/20 06:46:35;;;;;;;13.63;3.97;;;;;;;-144.78;100.00;59851.00;5033258;28;20190;-72
2021/01/20 06:49:08;;;;;;;6.85;3.75;;;;;;;-144.78;100.00;59851.00;5033117;28;20194;-70
2021/01/20 06:51:35;;;;;;;3.80;3.25;;;;;;;-144.78;100.00;59851.00;5033038;28;20518;-72
2021/01/20 06:54:13;;;;;;;6.93;3.70;;;;;;;-144.78;100.00;59851.00;5032947;28;20558;-69
2021/01/20 06:56:43;;;;;;;4.75;3.40;;;;;;;-144.78;100.00;59851.00;5023177;28;20301;-72
2021/01/20 06:59:23;;;;;;;4.45;3.22;;;;;;;-144.78;100.00;59851.00;5033636;28;20210;-70
2021/01/20 07:02:09;;;;;;;6.63;3.90;;;;;;;-144.78;100.00;59851.00;5032928;28;20548;-70
2021/01/20 07:04:54;;;;;;;6.45;3.17;;;;;;;-144.78;100.00;59851.00;5033108;28;20238;-69
2021/01/20 07:07:50;;;;;;;4.93;3.50;;;;;;;-144.78;100.00;59851.00;5033202;28;20529;-71
2021/01/20 07:10:16;;;;;;;7.13;3.53;;;;;;;-144.78;100.00;59851.00;5032768;28;20208;-70
2021/01/20 07:13:16;;;;;;;8.40;4.00;;;;;;;-144.78;100.00;59851.00;5032592;28;20247;-72
2021/01/20 07:15:44;;;;;;;3.75;3.17;;;;;;;-144.78;100.00;59851.00;5032790;28;20363;-70
2021/01/20 07:18:13;;;;;;;5.75;3.90;;;;;;;-144.78;100.00;59851.00;5032653;28;20246;-70
2021/01/20 07:20:40;;;;;;;5.68;4.00;;;;;;;-144.78;100.00;59851.00;5032541;28;20624;-70
2021/01/20 07:23:08;;;;;;;7.88;3.42;;;;;;;-144.78;100.00;59851.00;5032513;28;20186;-70
2021/01/20 07:25:35;;;;;;;5.32;3.10;;;;;;;-144.78;100.00;59851.00;5033036;28;20245;-71
2021/01/20 07:28:02;;;;;;;5.45;3.03;;;;;;;-144.78;100.00;59851.00;5031559;28;20237;-70
2021/01/20 07:30:29;;;;;;;4.20;3.50;;;;;;;-144.78;100.00;59851.00;5032937;28;20225;-70
2021/01/20 07:32:56;;;;;;;3.85;3.45;;;;;;;-144.78;100.00;59851.00;5032447;28;20224;-70
2021/01/20 07:35:25;;;;;;;5.45;3.75;;;;;;;-144.78;100.00;59851.00;5031998;28;20322;-71
2021/01/20 07:38:01;;;;;;;7.05;3.60;;;;;;;-144.78;100.00;59851.00;5032418;28;20206;-70
2021/01/20 07:40:29;;;;;;;5.70;3.42;;;;;;;-144.78;100.00;59851.00;5031906;28;20320;-70
2021/01/20 07:42:55;;;;;;;4.45;3.10;;;;;;;-144.78;100.00;59851.00;5032374;28;20712;-69
2021/01/20 07:45:38;;;;;;;2.90;2.25;;;;;;;-144.78;100.00;59851.00;5032418;28;20190;-70
2021/01/20 07:48:07;;;;;;;3.30;3.03;;;;;;;-144.78;100.00;59851.00;5032224;28;20202;-69
2021/01/20 07:50:45;;;;;;;5.13;2.92;;;;;;;-144.78;100.00;59851.00;5031971;28;20213;-70
2021/01/20 07:53:17;;;;;;;5.35;4.80;;;;;;;-144.78;100.00;59851.00;5032150;28;20613;-68
2021/01/20 07:55:44;;;;;;;4.63;3.15;;;;;;;-144.78;100.00;59851.00;5032281;28;20225;-70
2021/01/20 07:58:11;;;;;;;7.05;4.07;;;;;;;-144.78;100.00;59851.00;5032402;28;20201;-69
2021/01/20 08:00:46;;;;;;;7.30;3.55;;;;;;;-144.78;100.00;59851.00;5031726;28;20224;-68
2021/01/20 08:03:14;;;;;;;4.88;3.20;;;;;;;-144.78;100.00;59851.00;5031934;28;20209;-69
2021/01/20 08:05:42;;;;;;;6.78;2.72;;;;;;;-144.78;100.00;59851.00;5031527;28;20198;-71
2021/01/20 08:08:14;;;;;;;4.75;3.15;;;;;;;-144.78;100.00;59851.00;5031590;28;20301;-70
2021/01/20 08:10:42;;;;;;;13.15;2.95;;;;;;;-144.78;100.00;59851.00;5031824;28;20213;-70
2021/01/20 08:13:12;;;;;;;3.40;2.67;;;;;;;-144.78;100.00;59851.00;5031835;28;20198;-70
2021/01/20 08:15:40;;;;;;;4.45;2.80;;;;;;;-144.78;100.00;59851.00;5032287;28;20257;-70
2021/01/20 08:18:14;;;;;;;3.67;3.13;;;;;;;-144.78;100.00;59851.00;5031825;28;20185;-69
2021/01/20 08:20:41;;;;;;;3.75;3.35;;;;;;;-144.78;100.00;59851.00;5031581;28;20206;-69
2021/01/20 08:23:23;;;;;;;6.32;3.65;;;;;;;-144.78;100.00;59851.00;5031627;28;20296;-70
2021/01/20 08:25:49;;;;;;;4.80;2.60;;;;;;;-144.78;100.00;59851.00;5031505;28;20295;-70
2021/01/20 08:28:16;;;;;;;7.50;4.00;;;;;;;-144.78;100.00;59851.00;5031521;28;20236;-70
2021/01/20 08:30:44;;;;;;;6.00;3.25;;;;;;;-144.78;100.00;59851.00;5031531;28;20241;-70
2021/01/20 08:33:18;;;;;;;3.70;2.67;;;;;;;-144.78;100.00;59851.00;5031783;28;20198;-69
2021/01/20 08:35:44;;;;;;;4.63;3.03;;;;;;;-144.78;100.00;59851.00;5032094;28;20216;-70
2021/01/20 08:38:25;;;;;;;5.05;3.70;;;;;;;-144.78;100.00;59851.00;5031934;28;20256;-69
2021/01/20 08:41:10;;;;;;;6.60;5.00;;;;;;;-144.78;100.00;59851.00;5034737;28;20230;-70
2021/01/20 08:43:36;;;;;;;5.15;3.05;;;;;;;-144.78;100.00;59851.00;5035816;28;20232;-71
2021/01/20 08:46:24;;;;;;;4.53;2.95;;;;;;;-144.78;100.00;59851.00;5036073;28;20206;-69
2021/01/20 08:48:58;;;;;;;8.27;4.03;;;;;;;-144.78;100.00;59851.00;5035819;28;20324;-69
2021/01/20 08:51:24;;;;;;;3.85;2.97;;;;;;;-144.78;100.00;59851.00;5036033;28;20256;-70
2021/01/20 08:53:51;;;;;;;3.25;2.95;;;;;;;-144.78;100.00;59851.00;5035755;28;20205;-70
2021/01/20 08:56:27;;;;;;;4.97;3.65;;;;;;;-144.78;100.00;59851.00;5035940;28;20568;-70
2021/01/20 08:58:54;;;;;;;3.83;3.13;;;;;;;-144.78;100.00;59851.00;5036008;28;20255;-70
2021/01/20 09:01:26;;;;;;;3.03;2.75;;;;;;;-144.78;100.00;59851.00;5035529;28;20218;-69
2021/01/20 09:03:58;;;;;;;3.08;2.60;;;;;;;-144.78;100.00;59851.00;5035715;28;20217;-69
2021/01/20 09:06:25;;;;;;;3.15;2.40;;;;;;;-144.78;100.00;59851.00;5035997;28;20216;-69
2021/01/20 09:08:52;;;;;;;3.88;2.63;;;;;;;-144.78;100.00;59851.00;5035249;28;20198;-69
2021/01/20 09:11:18;;;;;;;5.50;2.72;;;;;;;-144.78;100.00;59851.00;5035239;28;20287;-68
2021/01/20 09:13:45;;;;;;;3.70;2.92;;;;;;;-144.78;100.00;59851.00;5035196;28;20202;-69
2021/01/20 09:16:14;;;;;;;5.32;2.60;;;;;;;-144.78;100.00;59851.00;5035470;28;20711;-71
2021/01/20 09:18:41;;;;;;;6.47;2.75;;;;;;;-144.78;100.00;59851.00;5035167;28;20616;-71
2021/01/20 09:21:08;;;;;;;3.05;2.28;;;;;;;-144.78;100.00;59851.00;5034993;28;20233;-71
2021/01/20 09:23:34;;;;;;;4.60;3.55;;;;;;;-144.78;100.00;59851.00;5034786;28;20263;-71
2021/01/20 09:26:00;;;;;;;3.20;2.47;;;;;;;-144.78;100.00;59851.00;5035242;28;20281;-69
2021/01/20 09:28:27;;;;;;;3.92;2.33;;;;;;;-144.78;100.00;59851.00;5034697;28;20277;-70
2021/01/20 09:30:53;;;;;;;5.18;2.80;;;;;;;-144.78;100.00;59851.00;5035132;28;20221;-69
2021/01/20 09:33:20;;;;;;;6.10;3.05;;;;;;;-144.78;100.00;59851.00;5034924;28;20213;-69
2021/01/20 09:35:46;;;;;;;6.57;2.50;;;;;;;-144.78;100.00;59851.00;5035026;28;20202;-70
2021/01/20 09:38:16;;;;;;;4.05;2.55;;;;;;;-144.78;100.00;59851.00;5034602;28;20213;-69
2021/01/20 09:40:42;;;;;;;2.75;2.40;;;;;;;-144.78;100.00;59851.00;5034951;28;20250;-70
2021/01/20 09:43:09;;;;;;;3.88;2.75;;;;;;;-144.78;100.00;59851.00;5034919;28;20210;-70
2021/01/20 09:45:35;;;;;;;5.35;2.10;;;;;;;-144.78;100.00;59851.00;5034810;28;20311;-70
2021/01/20 09:48:04;;;;;;;2.75;2.15;;;;;;;-144.78;100.00;59851.00;5034754;28;21019;-70
2021/01/20 09:50:34;;;;;;;4.47;2.38;;;;;;;-144.78;100.00;59851.00;5034223;28;20297;-69
2021/01/20 09:53:01;;;;;;;3.63;2.97;;;;;;;-144.78;100.00;59851.00;5033823;28;20205;-70
2021/01/20 09:55:29;;;;;;;3.50;2.72;;;;;;;-144.78;100.00;59851.00;5033991;28;20209;-70
2021/01/20 09:57:55;;;;;;;3.25;2.47;;;;;;;-144.78;100.00;59851.00;5034792;28;20601;-71
2021/01/20 10:00:22;;;;;;;2.83;2.33;;;;;;;-144.78;100.00;59851.00;5034118;28;20226;-69
2021/01/20 10:02:48;;;;;;;5.47;2.90;;;;;;;-144.78;100.00;59851.00;5033941;28;20194;-69
2021/01/20 10:05:15;;;;;;;3.00;2.45;;;;;;;-144.78;100.00;59851.00;5033954;28;20214;-70
2021/01/20 10:07:43;;;;;;;8.20;3.33;;;;;;;-144.78;100.00;59851.00;5033837;28;20248;-71
2021/01/20 10:10:12;;;;;;;2.95;2.00;;;;;;;-144.78;100.00;59851.00;5034126;28;20245;-69
2021/01/20 10:12:40;;;;;;;7.07;2.55;;;;;;;-144.78;100.00;59851.00;5033604;28;20210;-70
2021/01/20 10:15:08;;;;;;;3.47;1.70;;;;;;;-144.78;100.00;59851.00;5033654;28;20198;-71
2021/01/20 10:17:35;;;;;;;3.20;2.30;;;;;;;-144.78;100.00;59851.00;5034173;28;20253;-70
2021/01/20 10:20:02;;;;;;;4.20;2.25;;;;;;;-144.78;100.00;59851.00;5033629;28;20236;-70
2021/01/20 10:22:28;;;;;;;5.20;2.03;;;;;;;-144.78;100.00;59851.00;5033675;28;20651;-71
2021/01/20 10:24:54;;;;;;;4.75;2.65;;;;;;;-144.78;100.00;59851.00;5033542;28;20276;-71
2021/01/20 10:27:21;;;;;;;8.68;3.15;;;;;;;-144.78;100.00;59851.00;5033595;28;20277;-71
2021/01/20 10:29:49;;;;;;;2.72;2.08;;;;;;;-144.78;100.00;59851.00;5033249;28;20234;-70
2021/01/20 10:32:16;;;;;;;2.90;1.92;;;;;;;-144.78;100.00;59851.00;5033473;28;20242;-71
2021/01/20 10:34:42;;;;;;;3.17;2.20;;;;;;;-144.78;100.00;59851.00;5033790;28;20191;-71
2021/01/20 10:37:09;;;;;;;4.20;2.60;;;;;;;-144.78;100.00;59851.00;5032977;28;20235;-71
2021/01/20 10:39:35;;;;;;;1.92;1.73;;;;;;;-144.78;100.00;59851.00;5032885;28;20210;-70
2021/01/20 10:42:02;;;;;;;3.55;2.00;;;;;;;-144.78;100.00;59851.00;5033266;28;20238;-72
2021/01/20 10:44:28;;;;;;;4.18;2.05;;;;;;;-144.78;100.00;59851.00;5033391;28;20210;-71
2021/01/20 10:46:56;;;;;;;2.25;2.03;;;;;;;-144.78;100.00;59851.00;5033341;28;20211;-70
2021/01/20 10:49:22;;;;;;;2.35;2.15;;;;;;;-144.78;100.00;59851.00;5033507;28;20203;-70
2021/01/20 10:51:50;;;;;;;2.55;1.90;;;;;;;-144.78;100.00;59851.00;5033066;28;20216;-71
2021/01/20 10:54:17;;;;;;;3.50;2.45;;;;;;;-144.78;100.00;59851.00;5033258;28;20266;-71
2021/01/20 10:56:43;;;;;;;3.10;2.38;;;;;;;-144.78;100.00;59851.00;5033321;28;20231;-68
2021/01/20 10:59:10;;;;;;;3.08;2.30;;;;;;;-144.78;100.00;59851.00;5033073;28;20254;-70
2021/01/20 11:01:37;;;;;;;1.60;1.50;;;;;;;-144.78;100.00;59851.00;5032928;28;20234;-69
2021/01/20 11:04:05;;;;;;;4.88;2.25;;;;;;;-144.78;100.00;59851.00;5031952;28;20209;-70
2021/01/20 11:06:32;;;;;;;4.75;1.92;;;;;;;-144.78;100.00;59851.00;5032674;28;20216;-72
2021/01/20 11:08:59;;;;;;;2.45;2.10;;;;;;;-144.78;100.00;59851.00;5032536;28;20225;-69
2021/01/20 11:11:26;;;;;;;3.53;2.55;;;;;;;-144.78;100.00;59851.00;5033110;28;20193;-70
2021/01/20 11:13:53;;;;;;;3.85;1.95;;;;;;;-144.78;100.00;59851.00;5033171;28;20203;-70
2021/01/20 11:16:19;;;;;;;3.03;1.77;;;;;;;-144.78;100.00;59851.00;5032666;28;20255;-68